Time;durP1;ratioP1;P1;durP2;ratioP2;P2;SDS_P1;SDS_P2;PMS_P1;PMS_P2;Temp;Humidity;BMP_temperature;BMP_pressure;BME280_temperature;BME280_humidity;BME280_pressure;Samples;Min_cycle;Max_cycle;Signal;HPM_P1;HPM_P2
2023/07/25 00:02:14;;;;;;;;;4.00;4.00;;;;;19.33;74.68;99892.59;5120788;27;45336;-74
2023/07/25 00:04:39;;;;;;;;;3.00;2.00;;;;;19.28;74.58;99892.25;5132565;27;46260;-76
2023/07/25 00:07:04;;;;;;;;;3.00;3.00;;;;;19.14;75.18;99898.19;5122331;27;45369;-76
2023/07/25 00:09:30;;;;;;;;;2.33;2.33;;;;;19.13;75.79;99901.88;5140160;27;45473;-76
2023/07/25 00:11:55;;;;;;;;;3.00;3.00;;;;;19.13;76.12;99904.59;5141193;27;45732;-75
2023/07/25 00:14:20;;;;;;;;;3.33;3.33;;;;;19.01;75.77;99889.66;5139227;27;59502;-75
2023/07/25 00:16:46;;;;;;;;;3.67;3.67;;;;;19.07;75.37;99891.75;5140609;27;45335;-78
2023/07/25 00:19:11;;;;;;;;;3.00;3.00;;;;;19.12;76.06;99878.63;5140196;27;45710;-77
2023/07/25 00:21:36;;;;;;;;;4.00;3.00;;;;;19.06;75.93;99871.19;5141025;27;45296;-77
2023/07/25 00:24:02;;;;;;;;;4.33;4.33;;;;;19.08;76.77;99890.75;5120143;27;63164;-76
2023/07/25 00:26:27;;;;;;;;;5.00;5.00;;;;;19.03;76.12;99901.16;5140461;27;45323;-76
2023/07/25 00:28:53;;;;;;;;;3.67;3.00;;;;;18.99;76.46;99897.06;5139123;27;45464;-77
2023/07/25 00:31:18;;;;;;;;;4.00;4.00;;;;;18.86;76.79;99878.63;5139168;27;45495;-79
2023/07/25 00:33:43;;;;;;;;;3.67;3.00;;;;;18.88;76.53;99890.09;5139560;27;46105;-77
2023/07/25 00:36:09;;;;;;;;;2.00;2.00;;;;;18.80;77.46;99879.25;5120667;27;45351;-78
2023/07/25 00:38:34;;;;;;;;;2.33;2.33;;;;;18.75;77.13;99879.72;5120641;27;45389;-77
2023/07/25 00:41:00;;;;;;;;;4.33;4.33;;;;;18.83;77.71;99887.88;5140526;27;45618;-77
2023/07/25 00:43:25;;;;;;;;;4.00;4.00;;;;;18.83;76.95;99882.47;5138291;27;46569;-77
2023/07/25 00:45:51;;;;;;;;;4.00;4.00;;;;;18.74;76.64;99872.63;5119292;27;45173;-77
2023/07/25 00:48:16;;;;;;;;;5.00;4.00;;;;;18.84;78.32;99889.56;5119596;27;45350;-77
2023/07/25 00:50:42;;;;;;;;;3.00;3.00;;;;;18.82;77.26;99890.72;5129275;27;45365;-77
2023/07/25 00:53:09;;;;;;;;;6.00;5.00;;;;;18.79;78.09;99869.47;5140062;27;46461;-75
2023/07/25 00:55:35;;;;;;;;;3.33;3.33;;;;;18.68;77.91;99856.25;5101075;27;46090;-75
2023/07/25 00:58:01;;;;;;;;;3.33;3.33;;;;;18.70;77.83;99868.56;5100902;27;45525;-78
2023/07/25 01:00:26;;;;;;;;;4.00;3.00;;;;;18.74;77.68;99877.16;5135232;27;45494;-77
2023/07/25 01:02:52;;;;;;;;;5.33;4.67;;;;;18.65;78.01;99856.56;5139917;27;47795;-76
2023/07/25 01:05:18;;;;;;;;;4.67;3.00;;;;;18.21;78.57;99781.94;5122318;27;45420;-77
2023/07/25 01:07:44;;;;;;;;;3.33;3.33;;;;;18.68;78.55;99858.94;5119597;27;45336;-77
2023/07/25 01:10:09;;;;;;;;;3.00;3.00;;;;;18.53;78.37;99847.84;5120134;27;45575;-76
2023/07/25 01:12:34;;;;;;;;;4.67;4.67;;;;;18.54;79.04;99857.63;5139038;27;57609;-77
2023/07/25 01:15:00;;;;;;;;;4.00;4.00;;;;;18.62;79.18;99863.09;5098960;27;53089;-77
2023/07/25 01:17:26;;;;;;;;;7.67;6.00;;;;;18.58;79.11;99861.69;5119066;27;45326;-78
2023/07/25 01:19:53;;;;;;;;;4.33;4.33;;;;;18.60;78.56;99859.69;5127467;27;45527;-76
2023/07/25 01:22:21;;;;;;;;;5.00;5.00;;;;;18.66;78.10;99864.50;5118937;27;45339;-76
2023/07/25 01:24:47;;;;;;;;;5.00;5.00;;;;;18.67;78.01;99863.50;5129590;27;45369;-75
2023/07/25 01:27:14;;;;;;;;;6.00;6.00;;;;;18.68;78.28;99861.63;5139721;27;45319;-77
2023/07/25 01:29:39;;;;;;;;;5.00;5.00;;;;;18.68;78.54;99857.09;5138980;27;45494;-78
2023/07/25 01:32:05;;;;;;;;;5.00;5.00;;;;;18.55;78.62;99837.78;5139437;27;45929;-77
2023/07/25 01:34:31;;;;;;;;;6.00;5.00;;;;;18.60;78.79;99848.91;5130366;27;46127;-78
2023/07/25 01:36:56;;;;;;;;;6.00;6.00;;;;;18.52;78.63;99833.53;5118609;27;45310;-78
2023/07/25 01:39:21;;;;;;;;;6.67;6.00;;;;;18.60;77.94;99845.38;5127214;27;45507;-77
2023/07/25 01:41:47;;;;;;;;;6.00;5.00;;;;;18.62;77.72;99832.59;5139360;27;46035;-76
2023/07/25 01:44:12;;;;;;;;;7.67;5.00;;;;;18.61;77.84;99839.81;5132080;27;45344;-76
2023/07/25 01:46:43;;;;;;;;;9.00;5.00;;;;;18.57;78.05;99844.69;5128084;27;45459;-76
2023/07/25 01:49:10;;;;;;;;;8.33;6.33;;;;;18.54;78.45;99844.16;5138511;27;45525;-76
2023/07/25 01:51:35;;;;;;;;;5.33;5.00;;;;;18.56;78.83;99853.75;5138872;27;46029;-77
2023/07/25 01:54:01;;;;;;;;;8.00;7.00;;;;;18.58;78.33;99856.28;5137872;27;45420;-77
2023/07/25 01:56:26;;;;;;;;;6.00;6.00;;;;;18.59;78.72;99858.00;5139214;27;45225;-76
2023/07/25 01:58:51;;;;;;;;;4.67;4.67;;;;;18.64;78.65;99854.88;5134323;27;45351;-75
2023/07/25 02:01:17;;;;;;;;;6.00;6.00;;;;;18.63;78.54;99845.94;5118352;27;52182;-76
2023/07/25 02:03:42;;;;;;;;;6.00;6.00;;;;;18.61;77.58;99847.91;5121010;27;51738;-75
2023/07/25 02:06:07;;;;;;;;;6.00;6.00;;;;;18.60;77.44;99846.22;5138497;27;45302;-76
2023/07/25 02:08:33;;;;;;;;;8.00;5.67;;;;;18.56;78.00;99836.75;5119364;27;45334;-76
2023/07/25 02:10:58;;;;;;;;;7.00;5.67;;;;;18.64;77.74;99844.97;5138747;27;45968;-77
2023/07/25 02:13:23;;;;;;;;;7.00;5.00;;;;;18.60;77.75;99839.97;5137651;27;45286;-78
2023/07/25 02:15:49;;;;;;;;;10.00;5.67;;;;;18.61;77.43;99844.38;5139129;27;45234;-77
2023/07/25 02:18:14;;;;;;;;;5.67;4.00;;;;;18.56;77.86;99847.53;5138207;27;45612;-77
2023/07/25 02:20:39;;;;;;;;;6.67;6.67;;;;;18.58;78.55;99840.16;5138054;27;58919;-77
2023/07/25 02:23:04;;;;;;;;;6.33;6.33;;;;;18.54;79.05;99834.22;5138667;27;45434;-76
2023/07/25 02:25:30;;;;;;;;;6.00;6.00;;;;;18.56;79.92;99834.06;5137609;27;45519;-76
2023/07/25 02:27:55;;;;;;;;;8.00;8.00;;;;;18.53;79.88;99831.69;5138895;27;45522;-77
2023/07/25 02:30:21;;;;;;;;;8.33;7.00;;;;;18.49;79.86;99827.59;5120057;27;46192;-77
2023/07/25 02:32:47;;;;;;;;;6.00;6.00;;;;;18.36;80.78;99813.69;5117844;27;45422;-77
2023/07/25 02:35:14;;;;;;;;;8.00;8.00;;;;;18.39;81.13;99819.63;5133029;27;45455;-77
2023/07/25 02:37:39;;;;;;;;;6.33;5.00;;;;;18.30;80.82;99811.63;5138591;27;45540;-77
2023/07/25 02:40:05;;;;;;;;;7.00;6.00;;;;;18.37;80.65;99824.31;5135921;27;45332;-75
2023/07/25 02:42:30;;;;;;;;;6.67;5.00;;;;;18.22;80.55;99794.38;5138323;27;45240;-76
2023/07/25 02:44:56;;;;;;;;;4.67;4.67;;;;;18.42;79.90;99821.16;5124401;27;45322;-78
2023/07/25 02:47:21;;;;;;;;;4.67;4.67;;;;;18.45;80.49;99818.16;5118134;27;45587;-79
2023/07/25 02:49:46;;;;;;;;;5.00;3.00;;;;;18.46;80.25;99822.53;5106760;27;47345;-77
2023/07/25 02:52:12;;;;;;;;;4.67;4.00;;;;;18.43;80.42;99810.22;5117181;27;49939;-78
2023/07/25 02:54:37;;;;;;;;;5.00;5.00;;;;;18.34;80.07;99807.63;5127085;27;45221;-76
2023/07/25 02:57:02;;;;;;;;;7.00;5.67;;;;;18.33;80.34;99803.25;5138435;27;45261;-77
2023/07/25 02:59:30;;;;;;;;;5.00;5.00;;;;;18.35;80.15;99796.69;5126379;27;45611;-75
2023/07/25 03:01:56;;;;;;;;;5.67;5.67;;;;;18.27;80.09;99800.19;5117047;27;55188;-75
2023/07/25 03:04:21;;;;;;;;;7.67;5.67;;;;;18.30;80.59;99812.47;5124840;27;45701;-77
2023/07/25 03:06:47;;;;;;;;;6.00;6.00;;;;;18.33;80.20;99811.31;5138193;27;45593;-73
2023/07/25 03:09:12;;;;;;;;;4.00;4.00;;;;;18.25;79.95;99793.25;5135918;27;45920;-76
2023/07/25 03:11:37;;;;;;;;;4.00;4.00;;;;;18.36;80.24;99811.00;5137278;27;50722;-79
2023/07/25 03:14:03;;;;;;;;;4.67;4.67;;;;;18.34;80.00;99810.31;5132406;27;45435;-75
2023/07/25 03:16:28;;;;;;;;;4.33;4.33;;;;;18.28;79.93;99801.03;5117022;27;45579;-77
2023/07/25 03:18:54;;;;;;;;;6.33;6.33;;;;;18.40;79.50;99815.09;5117370;27;46008;-74
2023/07/25 03:21:19;;;;;;;;;5.00;5.00;;;;;18.27;79.02;99804.72;5116967;27;45333;-77
2023/07/25 03:23:45;;;;;;;;;5.00;5.00;;;;;18.15;79.41;99792.50;5099824;27;46180;-76
2023/07/25 03:26:10;;;;;;;;;6.00;6.00;;;;;18.13;79.37;99792.66;5138155;27;45316;-77
2023/07/25 03:28:35;;;;;;;;;4.33;4.33;;;;;18.19;79.29;99824.31;5137779;27;45355;-78
2023/07/25 03:31:01;;;;;;;;;5.00;5.00;;;;;18.07;78.98;99797.78;5137909;27;45438;-77
2023/07/25 03:33:27;;;;;;;;;5.00;4.00;;;;;18.07;78.79;99798.63;5137955;27;45337;-76
2023/07/25 03:35:53;;;;;;;;;4.00;4.00;;;;;18.17;79.43;99826.31;5137106;27;45543;-76
2023/07/25 03:38:19;;;;;;;;;5.67;4.00;;;;;18.18;79.83;99827.16;5137495;27;45989;-77
2023/07/25 03:40:45;;;;;;;;;6.67;5.00;;;;;18.06;79.23;99821.16;5131241;27;45357;-77
2023/07/25 03:43:10;;;;;;;;;5.67;4.00;;;;;18.07;79.84;99822.00;5117200;27;45291;-76
2023/07/25 03:45:35;;;;;;;;;7.33;5.33;;;;;18.10;79.95;99822.56;5116662;27;45324;-76
2023/07/25 03:48:01;;;;;;;;;5.67;5.67;;;;;18.06;79.50;99817.63;5116794;27;45340;-76
2023/07/25 03:50:26;;;;;;;;;5.00;5.00;;;;;17.95;80.29;99813.28;5117067;27;45326;-77
2023/07/25 03:52:51;;;;;;;;;5.33;4.00;;;;;18.04;86.43;99835.75;5133481;27;45246;-78
2023/07/25 03:55:16;;;;;;;;;5.00;5.00;;;;;17.82;81.23;99818.19;5136562;27;45512;-77
2023/07/25 03:57:42;;;;;;;;;6.00;6.00;;;;;17.80;81.86;99841.72;5135760;27;50795;-76
2023/07/25 04:00:07;;;;;;;;;3.00;3.00;;;;;17.76;82.44;99837.63;5118662;27;51436;-78
2023/07/25 04:02:33;;;;;;;;;4.00;4.00;;;;;17.75;82.07;99852.09;5137622;27;45346;-76
2023/07/25 04:04:58;;;;;;;;;5.00;5.00;;;;;17.69;82.92;99859.72;5135013;27;51363;-78
2023/07/25 04:07:23;;;;;;;;;5.67;5.67;;;;;17.56;83.31;99845.75;5139121;27;46585;-76
2023/07/25 04:09:49;;;;;;;;;9.00;9.00;;;;;17.58;83.67;99859.09;5140969;27;45422;-75
2023/07/25 04:12:14;;;;;;;;;5.00;5.00;;;;;17.46;84.19;99852.19;5122102;27;45497;-75
2023/07/25 04:14:40;;;;;;;;;10.33;10.33;;;;;17.50;83.93;99865.19;5127539;27;45382;-77
2023/07/25 04:17:06;;;;;;;;;24.33;20.00;;;;;17.44;84.62;99865.75;5126880;27;46175;-76
2023/07/25 04:19:31;;;;;;;;;7.00;5.33;;;;;17.38;86.26;99864.53;5123209;27;45325;-76
2023/07/25 04:21:56;;;;;;;;;3.00;3.00;;;;;17.38;86.06;99877.97;5141100;27;45451;-79
2023/07/25 04:24:22;;;;;;;;;5.67;5.67;;;;;17.34;86.84;99870.34;5140076;27;45226;-76
2023/07/25 04:26:47;;;;;;;;;6.67;5.67;;;;;17.28;87.33;99881.66;5140180;27;45921;-75
2023/07/25 04:29:12;;;;;;;;;13.00;12.00;;;;;17.23;87.74;99881.25;5139098;27;50644;-77
2023/07/25 04:31:38;;;;;;;;;17.00;17.00;;;;;17.20;87.60;99895.00;5140201;27;55652;-77
2023/07/25 04:34:03;;;;;;;;;13.00;13.00;;;;;17.17;88.06;99879.16;5139545;27;45415;-78
2023/07/25 04:36:29;;;;;;;;;12.67;12.33;;;;;17.13;89.56;99872.38;5140564;27;45344;-76
2023/07/25 04:38:56;;;;;;;;;11.67;11.00;;;;;17.16;89.62;99872.06;5140386;27;45370;-77
2023/07/25 04:41:21;;;;;;;;;11.00;11.00;;;;;17.24;88.62;99864.16;5102600;27;45670;-75
2023/07/25 04:43:47;;;;;;;;;10.00;10.00;;;;;17.26;88.67;99857.63;5119233;27;45271;-77
2023/07/25 04:46:12;;;;;;;;;13.00;10.33;;;;;17.27;89.31;99869.22;5122679;27;46592;-76
2023/07/25 04:48:37;;;;;;;;;10.00;8.33;;;;;17.26;88.30;99868.38;5139603;27;45331;-77
2023/07/25 04:51:03;;;;;;;;;9.00;7.67;;;;;17.25;88.81;99871.22;5123619;27;49600;-76
2023/07/25 04:53:28;;;;;;;;;9.33;8.00;;;;;17.26;88.67;99878.28;5101477;27;45422;-76
2023/07/25 04:55:53;;;;;;;;;11.33;10.33;;;;;17.17;89.15;99860.34;5139861;27;46091;-76
2023/07/25 04:58:19;;;;;;;;;5.33;5.00;;;;;17.27;88.66;99879.97;5140076;27;45361;-76
2023/07/25 05:00:44;;;;;;;;;7.67;7.67;;;;;17.19;88.10;99880.72;5139123;27;45523;-77
2023/07/25 05:03:09;;;;;;;;;8.00;8.00;;;;;17.16;87.61;99880.13;5140269;27;45314;-77
2023/07/25 05:05:35;;;;;;;;;7.67;7.67;;;;;17.09;88.18;99879.88;5120390;27;47092;-75
2023/07/25 05:08:00;;;;;;;;;8.33;7.67;;;;;17.21;88.53;99896.69;5140103;27;45338;-76
2023/07/25 05:10:25;;;;;;;;;7.33;7.33;;;;;17.27;87.67;99901.47;5111375;27;45496;-77
2023/07/25 05:12:51;;;;;;;;;10.33;9.00;;;;;17.26;87.72;99900.63;5119453;27;45477;-75
2023/07/25 05:15:16;;;;;;;;;12.00;11.00;;;;;17.32;86.92;99899.22;5133945;27;46144;-75
2023/07/25 05:17:42;;;;;;;;;10.00;8.33;;;;;17.22;86.97;99893.84;5139763;27;45916;-76
2023/07/25 05:20:07;;;;;;;;;9.33;9.33;;;;;17.30;86.28;99898.47;5138677;27;45641;-77
2023/07/25 05:22:33;;;;;;;;;15.00;12.33;;;;;17.29;86.66;99896.78;5140113;27;45594;-75
2023/07/25 05:24:58;;;;;;;;;12.00;9.67;;;;;17.29;86.50;99899.47;5107787;27;46153;-79
2023/07/25 05:27:23;;;;;;;;;10.67;8.33;;;;;17.22;87.14;99893.00;5118915;27;45233;-77
2023/07/25 05:29:49;;;;;;;;;10.67;8.67;;;;;17.26;86.85;99887.19;5124698;27;45568;-77
2023/07/25 05:32:14;;;;;;;;;7.00;6.00;;;;;17.37;86.93;99907.66;5137355;27;46306;-79
2023/07/25 05:34:39;;;;;;;;;11.00;9.33;;;;;17.31;87.01;99908.25;5131918;27;46925;-75
2023/07/25 05:37:05;;;;;;;;;10.00;9.00;;;;;17.25;87.00;99901.63;5134240;27;46228;-78
2023/07/25 05:39:30;;;;;;;;;13.00;10.00;;;;;17.30;87.15;99909.25;5134575;27;45236;-77
2023/07/25 05:41:56;;;;;;;;;10.00;9.00;;;;;17.33;87.64;99917.88;5119049;27;45494;-77
2023/07/25 05:44:21;;;;;;;;;10.00;9.67;;;;;17.26;87.16;99906.00;5128982;27;46488;-77
2023/07/25 05:46:46;;;;;;;;;11.00;10.00;;;;;17.35;86.76;99920.41;5139382;27;45301;-77
2023/07/25 05:49:12;;;;;;;;;11.00;9.33;;;;;17.38;88.00;99917.44;5121825;27;45419;-80
2023/07/25 05:51:37;;;;;;;;;12.00;9.00;;;;;17.42;87.34;99926.88;5118862;27;45518;-75
2023/07/25 05:54:02;;;;;;;;;10.67;10.33;;;;;17.43;86.75;99923.19;5138852;27;61143;-74
2023/07/25 05:56:28;;;;;;;;;11.67;11.67;;;;;17.49;86.04;99919.09;5133409;27;62565;-76
2023/07/25 05:58:53;;;;;;;;;13.67;11.33;;;;;17.57;86.35;99927.25;5117696;27;58776;-77
2023/07/25 06:01:19;;;;;;;;;14.33;12.00;;;;;17.59;86.67;99919.91;5099444;27;45576;-76
2023/07/25 06:03:44;;;;;;;;;14.33;12.00;;;;;17.68;85.75;99932.47;5117471;27;46023;-76
2023/07/25 06:06:14;;;;;;;;;10.00;10.00;;;;;17.51;84.81;99926.03;5117869;27;56933;-83
2023/07/25 06:08:40;;;;;;;;;12.00;12.00;;;;;17.64;85.50;99941.81;5120984;27;45624;-77
2023/07/25 06:11:05;;;;;;;;;12.33;9.67;;;;;17.58;84.04;99942.44;5126237;27;45538;-78
2023/07/25 06:13:33;;;;;;;;;13.33;11.33;;;;;17.33;83.81;99906.28;5133673;27;46165;-78
2023/07/25 06:16:00;;;;;;;;;11.67;11.67;;;;;17.29;84.49;99910.22;5138697;27;45394;-79
2023/07/25 06:18:25;;;;;;;;;8.33;7.00;;;;;17.59;83.32;99953.03;5129941;27;45251;-77
2023/07/25 06:20:50;;;;;;;;;9.00;9.00;;;;;17.38;84.18;99915.59;5107980;27;45539;-77
2023/07/25 06:23:16;;;;;;;;;10.00;10.00;;;;;17.61;83.26;99959.09;5138522;27;45327;-78
2023/07/25 06:25:41;;;;;;;;;11.00;11.00;;;;;17.55;81.92;99948.91;5133222;27;45158;-80
2023/07/25 06:28:07;;;;;;;;;11.67;11.67;;;;;17.58;81.02;99969.31;5131182;27;45712;-78
2023/07/25 06:30:32;;;;;;;;;13.33;13.33;;;;;17.38;80.81;99944.31;5117800;27;45225;-77
2023/07/25 06:32:57;;;;;;;;;16.33;14.67;;;;;17.42;81.11;99961.84;5117680;27;45964;-80
2023/07/25 06:35:23;;;;;;;;;15.00;15.00;;;;;17.43;80.78;99960.84;5099202;27;45270;-78
2023/07/25 06:37:49;;;;;;;;;15.33;15.00;;;;;17.40;80.79;99971.88;5117635;27;45197;-78
2023/07/25 06:40:14;;;;;;;;;21.67;17.67;;;;;17.20;80.14;99973.78;5117792;27;45249;-79
2023/07/25 06:42:40;;;;;;;;;17.00;15.67;;;;;17.06;80.73;99958.09;5117229;27;46192;-77
2023/07/25 06:45:06;;;;;;;;;20.00;20.00;;;;;17.16;80.07;99990.31;5117909;27;45335;-77
2023/07/25 06:47:31;;;;;;;;;20.00;20.00;;;;;16.96;79.77;99982.28;5117726;27;45524;-77
2023/07/25 06:49:57;;;;;;;;;21.00;16.67;;;;;16.80;79.30;99971.25;5117561;27;45549;-77
2023/07/25 06:52:23;;;;;;;;;16.67;16.67;;;;;16.93;79.73;100006.72;5117556;27;45412;-77
2023/07/25 06:54:48;;;;;;;;;17.33;17.33;;;;;16.83;79.73;100000.50;5116920;27;52081;-77
2023/07/25 06:57:13;;;;;;;;;20.33;20.33;;;;;16.84;80.51;100007.56;5099083;27;45327;-78
2023/07/25 06:59:39;;;;;;;;;18.67;16.33;;;;;16.56;80.35;99970.75;5117591;27;45461;-77
2023/07/25 07:02:04;;;;;;;;;16.33;16.33;;;;;16.26;80.37;99943.00;5117528;27;46195;-77
2023/07/25 07:04:30;;;;;;;;;21.00;19.00;;;;;16.72;80.26;100032.84;5098708;27;45339;-78
2023/07/25 07:06:56;;;;;;;;;24.00;20.00;;;;;16.70;80.23;100016.03;5117241;27;45413;-77
2023/07/25 07:09:21;;;;;;;;;16.33;15.67;;;;;16.71;79.67;100023.94;5117732;27;45307;-78
2023/07/25 07:11:46;;;;;;;;;15.67;12.67;;;;;16.76;79.22;100032.41;5098449;27;46625;-76
2023/07/25 07:14:12;;;;;;;;;14.33;14.33;;;;;16.71;78.72;100031.16;5117180;27;45262;-78
2023/07/25 07:16:37;;;;;;;;;9.00;9.00;;;;;16.59;77.92;100010.75;5117412;27;45464;-78
2023/07/25 07:19:03;;;;;;;;;10.00;10.00;;;;;16.79;77.06;100050.09;5117537;27;45314;-78
2023/07/25 07:21:29;;;;;;;;;8.67;8.67;;;;;16.57;77.24;100032.38;5117184;27;45338;-78
2023/07/25 07:23:54;;;;;;;;;9.00;8.00;;;;;16.56;76.83;100027.13;5117052;27;45462;-76
2023/07/25 07:26:19;;;;;;;;;7.67;7.00;;;;;16.71;76.56;100068.75;5117668;27;45309;-79
2023/07/25 07:28:45;;;;;;;;;8.67;7.00;;;;;16.72;76.67;100079.34;5099041;27;45697;-80
2023/07/25 07:31:12;;;;;;;;;8.67;8.67;;;;;16.67;75.87;100069.97;5117267;27;46138;-78
2023/07/25 07:33:38;;;;;;;;;12.67;11.00;;;;;16.40;75.68;100035.69;5117631;27;45451;-77
2023/07/25 07:36:04;;;;;;;;;8.67;8.67;;;;;16.66;75.88;100076.31;5117273;27;45301;-78
2023/07/25 07:38:29;;;;;;;;;6.00;6.00;;;;;16.57;74.33;100078.00;5117400;27;45562;-80
2023/07/25 07:40:54;;;;;;;;;7.00;7.00;;;;;16.51;75.36;100084.75;5098747;27;54719;-77
2023/07/25 07:43:20;;;;;;;;;4.00;4.00;;;;;16.64;74.43;100102.44;5120741;27;45379;-79
2023/07/25 07:45:46;;;;;;;;;7.67;7.00;;;;;16.60;74.85;100106.41;5120802;27;45305;-76
2023/07/25 07:48:12;;;;;;;;;7.00;5.00;;;;;16.48;74.59;100087.72;5121177;27;45441;-77
2023/07/25 07:50:37;;;;;;;;;6.33;5.00;;;;;16.57;74.12;100106.69;5102247;27;47976;-77
2023/07/25 07:53:03;;;;;;;;;6.00;5.00;;;;;16.64;73.79;100110.50;5120359;27;45347;-78
2023/07/25 07:55:29;;;;;;;;;3.00;3.00;;;;;16.63;73.11;100108.81;5120712;27;45330;-78
2023/07/25 07:57:55;;;;;;;;;8.33;8.33;;;;;16.73;72.91;100112.41;5120699;27;45457;-80
2023/07/25 08:00:21;;;;;;;;;5.67;4.00;;;;;16.65;72.25;100098.78;5120292;27;45391;-80
2023/07/25 08:02:46;;;;;;;;;2.33;2.33;;;;;16.61;72.14;100119.69;5120338;27;45570;-76
2023/07/25 08:05:13;;;;;;;;;2.67;2.00;;;;;16.58;71.90;100137.91;5120991;27;45387;-81
2023/07/25 08:07:38;;;;;;;;;2.67;2.00;;;;;16.41;71.76;100117.94;5120810;27;45290;-79
2023/07/25 08:10:04;;;;;;;;;3.00;2.00;;;;;16.46;73.15;100119.22;5101638;27;48443;-79
2023/07/25 08:12:30;;;;;;;;;3.00;3.00;;;;;16.66;72.97;100140.75;5101501;27;45342;-77
2023/07/25 08:14:56;;;;;;;;;3.00;1.00;;;;;16.62;72.66;100133.97;5120029;27;45382;-78
2023/07/25 08:17:21;;;;;;;;;2.00;2.00;;;;;16.68;70.76;100153.09;5120170;27;45614;-78
2023/07/25 08:19:47;;;;;;;;;2.00;2.00;;;;;16.38;70.29;100094.03;5119874;27;45322;-78
2023/07/25 08:22:12;;;;;;;;;4.67;3.00;;;;;16.71;70.27;100143.94;5120213;27;45281;-80
2023/07/25 08:24:40;;;;;;;;;4.33;3.00;;;;;16.72;70.07;100148.31;5120168;27;45244;-81
2023/07/25 08:27:07;;;;;;;;;2.00;2.00;;;;;16.86;69.59;100155.97;5120297;27;45250;-79
2023/07/25 08:29:32;;;;;;;;;5.00;3.00;;;;;16.97;68.68;100163.09;5119649;27;46482;-80
2023/07/25 08:31:57;;;;;;;;;3.00;1.00;;;;;16.82;68.47;100133.09;5119723;27;45410;-80
2023/07/25 08:34:23;;;;;;;;;2.33;2.33;;;;;16.97;67.90;100161.25;5119804;27;45403;-79
2023/07/25 08:36:48;;;;;;;;;3.00;2.00;;;;;17.09;68.30;100165.53;5119934;27;45392;-78
2023/07/25 08:39:14;;;;;;;;;2.67;2.67;;;;;17.06;67.37;100151.53;5120107;27;46480;-77
2023/07/25 08:41:45;;;;;;;;;3.33;3.00;;;;;17.33;68.33;100181.28;5120073;27;45530;-78
2023/07/25 08:44:11;;;;;;;;;4.67;2.67;;;;;17.67;67.28;100183.56;5119928;27;45176;-78
2023/07/25 08:46:40;;;;;;;;;3.00;3.00;;;;;17.83;66.24;100183.00;5119650;27;45622;-77
2023/07/25 08:49:10;;;;;;;;;2.00;2.00;;;;;17.77;64.48;100168.31;5119370;27;45304;-77
2023/07/25 08:51:41;;;;;;;;;1.33;1.33;;;;;17.90;63.31;100192.22;5100502;27;45472;-77
2023/07/25 08:54:22;;;;;;;;;2.00;2.00;;;;;17.88;63.08;100202.28;5119528;27;45377;-75
2023/07/25 08:56:47;;;;;;;;;2.00;2.00;;;;;17.88;63.07;100181.59;5119439;27;45441;-78
2023/07/25 08:59:14;;;;;;;;;4.00;4.00;;;;;18.13;62.90;100212.47;5119609;27;46129;-77
2023/07/25 09:01:40;;;;;;;;;5.00;3.00;;;;;18.26;62.63;100207.63;5100679;27;45437;-75
2023/07/25 09:04:07;;;;;;;;;4.00;3.00;;;;;18.31;62.89;100204.47;5119380;27;45456;-79
2023/07/25 09:06:32;;;;;;;;;4.00;3.67;;;;;18.30;62.08;100220.78;5119650;27;45566;-78
2023/07/25 09:08:58;;;;;;;;;3.00;3.00;;;;;18.27;62.31;100233.53;5118890;27;46023;-79
2023/07/25 09:11:23;;;;;;;;;2.67;2.33;;;;;18.04;63.17;100191.78;5118969;27;45353;-78
2023/07/25 09:13:49;;;;;;;;;7.00;4.00;;;;;18.38;63.34;100226.31;5100460;27;45383;-79
2023/07/25 09:16:15;;;;;;;;;3.33;3.33;;;;;18.40;65.12;100224.31;5119506;27;45264;-78
2023/07/25 09:18:41;;;;;;;;;5.00;3.33;;;;;18.46;64.94;100251.50;5118858;27;46582;-77
2023/07/25 09:21:06;;;;;;;;;3.67;3.00;;;;;18.47;64.25;100252.34;5118900;27;45486;-78
2023/07/25 09:23:32;;;;;;;;;2.33;2.33;;;;;18.54;64.75;100258.84;5119028;27;45348;-77
2023/07/25 09:26:08;;;;;;;;;5.33;5.00;;;;;18.50;64.74;100235.91;5100672;27;45485;-76
2023/07/25 09:28:33;;;;;;;;;12.00;11.00;;;;;18.78;65.28;100263.81;5118631;27;45380;-80
2023/07/25 09:31:05;;;;;;;;;7.00;7.00;;;;;18.63;65.14;100236.44;5118744;27;45392;-77
2023/07/25 09:33:30;;;;;;;;;5.67;5.67;;;;;18.31;64.15;100217.09;5100313;27;45193;-80
2023/07/25 09:35:57;;;;;;;;;6.00;6.00;;;;;18.58;64.18;100276.41;5118826;27;45397;-79
2023/07/25 09:38:23;;;;;;;;;7.33;5.67;;;;;18.46;64.55;100264.09;5118395;27;46392;-78
2023/07/25 09:40:49;;;;;;;;;7.67;6.00;;;;;18.48;65.10;100273.72;5118286;27;49218;-78
2023/07/25 09:43:25;;;;;;;;;12.33;11.00;;;;;18.69;64.72;100281.69;5119222;27;45395;-78
2023/07/25 09:45:51;;;;;;;;;17.00;13.67;;;;;18.88;64.05;100278.09;5100396;27;45339;-76
2023/07/25 09:48:18;;;;;;;;;5.67;5.67;;;;;19.31;63.86;100293.66;5118692;27;45949;-77
2023/07/25 09:50:46;;;;;;;;;5.00;4.00;;;;;19.67;61.84;100296.47;5118639;27;45290;-78
2023/07/25 09:53:16;;;;;;;;;11.00;6.00;;;;;19.87;60.51;100286.41;5118443;27;45314;-78
2023/07/25 09:55:43;;;;;;;;;5.67;5.67;;;;;19.88;59.88;100288.94;5099873;27;45468;-78
2023/07/25 09:58:10;;;;;;;;;8.33;7.00;;;;;19.84;60.56;100282.16;5118190;27;45429;-79
2023/07/25 10:00:36;;;;;;;;;9.00;7.33;;;;;20.04;60.34;100307.97;5118361;27;45438;-79
2023/07/25 10:03:01;;;;;;;;;11.00;6.00;;;;;20.19;59.37;100319.13;5099406;27;45358;-80
2023/07/25 10:05:30;;;;;;;;;8.67;7.33;;;;;20.23;58.68;100290.78;5117869;27;45276;-79
2023/07/25 10:08:00;;;;;;;;;10.33;8.67;;;;;20.33;58.46;100305.06;5118049;27;45966;-78
2023/07/25 10:10:26;;;;;;;;;5.33;5.00;;;;;20.40;57.51;100309.84;5118077;27;45208;-80
2023/07/25 10:12:53;;;;;;;;;6.00;6.00;;;;;20.66;58.11;100307.19;5118529;27;45553;-81
2023/07/25 10:15:20;;;;;;;;;10.00;9.33;;;;;20.87;56.36;100308.53;5099922;27;45443;-77
2023/07/25 10:17:46;;;;;;;;;6.00;6.00;;;;;20.75;55.61;100288.19;5118059;27;45419;-78
2023/07/25 10:20:20;;;;;;;;;9.33;9.00;;;;;20.74;54.61;100307.28;5118121;27;45434;-78
2023/07/25 10:22:46;;;;;;;;;8.00;8.00;;;;;20.65;55.24;100300.09;5118896;27;45346;-80
2023/07/25 10:25:20;;;;;;;;;10.33;10.33;;;;;20.74;54.91;100318.94;5118427;27;45343;-77
2023/07/25 10:27:46;;;;;;;;;8.00;6.67;;;;;20.69;54.98;100305.03;5099982;27;48155;-78
2023/07/25 10:30:25;;;;;;;;;16.00;12.00;;;;;20.84;54.43;100292.66;5117951;27;45341;-78
2023/07/25 10:32:54;;;;;;;;;8.67;8.67;;;;;20.50;54.56;100214.22;5117955;27;45238;-79
2023/07/25 10:35:40;;;;;;;;;9.33;9.33;;;;;20.99;53.68;100292.91;5118266;27;45529;-75
2023/07/25 10:38:11;;;;;;;;;30.67;28.00;;;;;20.99;53.95;100260.47;5117544;27;45413;-77
2023/07/25 10:40:56;;;;;;;;;12.67;12.00;;;;;21.52;53.43;100301.81;5117485;27;45318;-77
2023/07/25 10:43:46;;;;;;;;;38.33;28.33;;;;;21.72;52.55;100287.81;5099290;27;45479;-78
2023/07/25 10:46:15;;;;;;;;;7.33;7.33;;;;;21.98;50.30;100287.69;5100357;27;45604;-77
2023/07/25 10:48:49;;;;;;;;;8.00;8.00;;;;;22.18;49.25;100304.53;5117663;27;46446;-77
2023/07/25 10:51:17;;;;;;;;;6.67;5.33;;;;;21.71;48.80;100269.03;5117760;27;45379;-79
2023/07/25 10:54:08;;;;;;;;;7.67;6.00;;;;;21.85;49.05;100313.56;5117937;27;45443;-77
2023/07/25 10:56:33;;;;;;;;;8.33;8.00;;;;;21.54;49.29;100314.16;5118001;27;45357;-78
2023/07/25 10:59:06;;;;;;;;;9.33;9.33;;;;;21.18;50.74;100316.16;5099037;27;47408;-77
2023/07/25 11:01:34;;;;;;;;;8.67;8.67;;;;;21.05;51.13;100327.41;5098908;27;45347;-77
2023/07/25 11:04:32;;;;;;;;;9.33;8.00;;;;;21.06;51.48;100329.09;5117605;27;45315;-76
2023/07/25 11:07:17;;;;;;;;;7.67;6.33;;;;;21.25;51.40;100325.38;5117544;27;45411;-78
2023/07/25 11:09:44;;;;;;;;;9.33;6.33;;;;;21.71;50.24;100332.13;5098158;27;47461;-78
2023/07/25 11:12:10;;;;;;;;;7.67;7.67;;;;;21.76;49.29;100291.06;5098687;27;45482;-78
2023/07/25 11:14:45;;;;;;;;;7.33;5.67;;;;;22.03;48.71;100328.69;5117787;27;45304;-79
2023/07/25 11:17:12;;;;;;;;;9.00;9.00;;;;;22.29;47.41;100333.16;5124204;27;45345;-79
2023/07/25 11:19:37;;;;;;;;;11.33;9.00;;;;;22.53;47.19;100313.34;5123862;27;45289;-76
2023/07/25 11:22:10;;;;;;;;;9.67;7.67;;;;;22.93;45.92;100301.66;5123870;27;45391;-77
2023/07/25 11:24:47;;;;;;;;;4.00;4.00;;;;;23.37;44.11;100307.44;5105318;27;45428;-77